sensor_id;sensor_type;location;lat;lon;timestamp;P1;durP1;ratioP1;P2;durP2;ratioP2
40757;SDS011;26462;47.384;19.218;2024-03-23T00:54:29;30.20;;;15.20;;
40757;SDS011;26462;47.384;19.218;2024-03-23T00:56:56;37.30;;;15.75;;
40757;SDS011;26462;47.384;19.218;2024-03-23T00:59:23;29.80;;;14.57;;
40757;SDS011;26462;47.384;19.218;2024-03-23T01:01:52;30.48;;;13.48;;
40757;SDS011;26462;47.384;19.218;2024-03-23T01:04:20;29.92;;;13.68;;
40757;SDS011;26462;47.384;19.218;2024-03-23T01:06:47;31.80;;;14.05;;
40757;SDS011;26462;47.384;19.218;2024-03-23T01:09:14;28.83;;;13.20;;
40757;SDS011;26462;47.384;19.218;2024-03-23T01:11:42;31.48;;;13.80;;
40757;SDS011;26462;47.384;19.218;2024-03-23T01:14:09;26.13;;;14.25;;
40757;SDS011;26462;47.384;19.218;2024-03-23T01:16:36;28.67;;;13.73;;
40757;SDS011;26462;47.384;19.218;2024-03-23T01:19:03;28.13;;;13.40;;
40757;SDS011;26462;47.384;19.218;2024-03-23T01:21:29;29.15;;;13.38;;
40757;SDS011;26462;47.384;19.218;2024-03-23T01:23:57;30.33;;;14.00;;
40757;SDS011;26462;47.384;19.218;2024-03-23T01:26:23;28.52;;;13.88;;
40757;SDS011;26462;47.384;19.218;2024-03-23T01:28:52;30.25;;;14.27;;
40757;SDS011;26462;47.384;19.218;2024-03-23T01:31:19;36.42;;;14.93;;
40757;SDS011;26462;47.384;19.218;2024-03-23T01:33:46;27.98;;;14.23;;
40757;SDS011;26462;47.384;19.218;2024-03-23T01:36:12;28.17;;;14.02;;
40757;SDS011;26462;47.384;19.218;2024-03-23T01:38:40;30.45;;;14.63;;
40757;SDS011;26462;47.384;19.218;2024-03-23T01:41:06;31.02;;;15.18;;
40757;SDS011;26462;47.384;19.218;2024-03-23T01:43:34;31.10;;;14.93;;
40757;SDS011;26462;47.384;19.218;2024-03-23T01:46:01;29.88;;;14.35;;
40757;SDS011;26462;47.384;19.218;2024-03-23T01:48:29;28.58;;;13.32;;
40757;SDS011;26462;47.384;19.218;2024-03-23T01:50:55;27.92;;;13.93;;
40757;SDS011;26462;47.384;19.218;2024-03-23T01:53:23;34.10;;;15.32;;
40757;SDS011;26462;47.384;19.218;2024-03-23T01:55:50;32.55;;;14.80;;
40757;SDS011;26462;47.384;19.218;2024-03-23T01:58:18;35.47;;;15.93;;
40757;SDS011;26462;47.384;19.218;2024-03-23T02:00:44;32.22;;;15.40;;
40757;SDS011;26462;47.384;19.218;2024-03-23T02:03:25;31.48;;;16.45;;
40757;SDS011;26462;47.384;19.218;2024-03-23T02:05:52;31.60;;;15.05;;
40757;SDS011;26462;47.384;19.218;2024-03-23T02:08:21;35.97;;;15.02;;
40757;SDS011;26462;47.384;19.218;2024-03-23T02:10:48;32.72;;;15.95;;
40757;SDS011;26462;47.384;19.218;2024-03-23T02:13:16;34.13;;;17.23;;
40757;SDS011;26462;47.384;19.218;2024-03-23T02:15:43;31.65;;;15.73;;
40757;SDS011;26462;47.384;19.218;2024-03-23T02:18:11;34.15;;;16.38;;
40757;SDS011;26462;47.384;19.218;2024-03-23T02:20:39;37.78;;;16.83;;
40757;SDS011;26462;47.384;19.218;2024-03-23T02:23:13;38.78;;;17.33;;
40757;SDS011;26462;47.384;19.218;2024-03-23T02:25:40;31.58;;;15.13;;
40757;SDS011;26462;47.384;19.218;2024-03-23T02:28:07;32.67;;;16.50;;
40757;SDS011;26462;47.384;19.218;2024-03-23T02:30:34;30.13;;;15.68;;
40757;SDS011;26462;47.384;19.218;2024-03-23T02:33:01;35.70;;;16.65;;
40757;SDS011;26462;47.384;19.218;2024-03-23T02:35:28;36.72;;;17.08;;
40757;SDS011;26462;47.384;19.218;2024-03-23T02:37:55;34.60;;;15.02;;
40757;SDS011;26462;47.384;19.218;2024-03-23T02:40:24;36.42;;;15.55;;
40757;SDS011;26462;47.384;19.218;2024-03-23T02:42:51;31.75;;;16.17;;
40757;SDS011;26462;47.384;19.218;2024-03-23T02:45:18;31.75;;;15.07;;
40757;SDS011;26462;47.384;19.218;2024-03-23T02:47:45;32.80;;;15.88;;
40757;SDS011;26462;47.384;19.218;2024-03-23T02:50:12;32.45;;;15.68;;
40757;SDS011;26462;47.384;19.218;2024-03-23T02:52:40;33.92;;;14.65;;
40757;SDS011;26462;47.384;19.218;2024-03-23T02:55:07;29.85;;;15.40;;
40757;SDS011;26462;47.384;19.218;2024-03-23T02:57:36;32.45;;;15.15;;
40757;SDS011;26462;47.384;19.218;2024-03-23T03:00:03;32.05;;;15.40;;
40757;SDS011;26462;47.384;19.218;2024-03-23T03:02:32;29.20;;;14.30;;
40757;SDS011;26462;47.384;19.218;2024-03-23T03:04:59;33.40;;;15.70;;
40757;SDS011;26462;47.384;19.218;2024-03-23T03:07:26;33.30;;;14.73;;
40757;SDS011;26462;47.384;19.218;2024-03-23T03:09:53;36.30;;;16.05;;
40757;SDS011;26462;47.384;19.218;2024-03-23T03:12:20;29.35;;;14.57;;
40757;SDS011;26462;47.384;19.218;2024-03-23T03:14:48;35.38;;;15.75;;
40757;SDS011;26462;47.384;19.218;2024-03-23T03:17:15;31.00;;;15.05;;
40757;SDS011;26462;47.384;19.218;2024-03-23T03:19:42;36.90;;;15.60;;
40757;SDS011;26462;47.384;19.218;2024-03-23T03:22:09;34.50;;;15.45;;
40757;SDS011;26462;47.384;19.218;2024-03-23T03:24:35;33.05;;;15.30;;
40757;SDS011;26462;47.384;19.218;2024-03-23T03:27:03;34.65;;;15.57;;
40757;SDS011;26462;47.384;19.218;2024-03-23T03:29:29;37.05;;;16.85;;
40757;SDS011;26462;47.384;19.218;2024-03-23T03:32:03;37.92;;;17.55;;
40757;SDS011;26462;47.384;19.218;2024-03-23T03:34:29;32.78;;;15.65;;
40757;SDS011;26462;47.384;19.218;2024-03-23T03:36:57;34.47;;;16.33;;
40757;SDS011;26462;47.384;19.218;2024-03-23T03:39:23;37.00;;;16.88;;
40757;SDS011;26462;47.384;19.218;2024-03-23T03:41:51;38.58;;;17.85;;
40757;SDS011;26462;47.384;19.218;2024-03-23T03:44:18;43.05;;;18.67;;
40757;SDS011;26462;47.384;19.218;2024-03-23T03:46:45;37.80;;;16.88;;
40757;SDS011;26462;47.384;19.218;2024-03-23T03:49:13;39.00;;;17.08;;
40757;SDS011;26462;47.384;19.218;2024-03-23T03:51:41;43.25;;;20.13;;
40757;SDS011;26462;47.384;19.218;2024-03-23T03:54:07;41.10;;;18.58;;
40757;SDS011;26462;47.384;19.218;2024-03-23T03:56:34;44.10;;;19.00;;
40757;SDS011;26462;47.384;19.218;2024-03-23T03:59:01;43.95;;;19.40;;
40757;SDS011;26462;47.384;19.218;2024-03-23T04:01:28;44.92;;;18.85;;
40757;SDS011;26462;47.384;19.218;2024-03-23T04:03:54;43.42;;;19.98;;
40757;SDS011;26462;47.384;19.218;2024-03-23T04:06:23;39.63;;;18.77;;
40757;SDS011;26462;47.384;19.218;2024-03-23T04:08:50;47.90;;;19.92;;
40757;SDS011;26462;47.384;19.218;2024-03-23T04:11:17;41.15;;;19.35;;
40757;SDS011;26462;47.384;19.218;2024-03-23T04:13:43;45.35;;;21.02;;
40757;SDS011;26462;47.384;19.218;2024-03-23T04:16:11;43.55;;;20.95;;
40757;SDS011;26462;47.384;19.218;2024-03-23T04:18:38;44.22;;;18.38;;
40757;SDS011;26462;47.384;19.218;2024-03-23T04:21:06;42.42;;;19.52;;
40757;SDS011;26462;47.384;19.218;2024-03-23T04:23:34;44.65;;;20.55;;
40757;SDS011;26462;47.384;19.218;2024-03-23T04:26:03;40.58;;;18.55;;
40757;SDS011;26462;47.384;19.218;2024-03-23T04:28:30;38.25;;;17.52;;
40757;SDS011;26462;47.384;19.218;2024-03-23T04:31:00;39.90;;;17.75;;
40757;SDS011;26462;47.384;19.218;2024-03-23T04:33:29;37.50;;;17.90;;
40757;SDS011;26462;47.384;19.218;2024-03-23T04:35:56;38.78;;;18.50;;
40757;SDS011;26462;47.384;19.218;2024-03-23T04:38:23;42.03;;;19.05;;
40757;SDS011;26462;47.384;19.218;2024-03-23T04:40:55;43.80;;;18.73;;
40757;SDS011;26462;47.384;19.218;2024-03-23T04:43:22;39.92;;;17.85;;
40757;SDS011;26462;47.384;19.218;2024-03-23T04:45:50;39.05;;;18.05;;
40757;SDS011;26462;47.384;19.218;2024-03-23T04:48:19;41.53;;;18.38;;
40757;SDS011;26462;47.384;19.218;2024-03-23T04:50:47;39.28;;;17.13;;
40757;SDS011;26462;47.384;19.218;2024-03-23T04:53:15;40.97;;;17.70;;
40757;SDS011;26462;47.384;19.218;2024-03-23T04:55:43;40.33;;;18.42;;
40757;SDS011;26462;47.384;19.218;2024-03-23T04:58:12;39.35;;;17.55;;
40757;SDS011;26462;47.384;19.218;2024-03-23T05:00:38;39.80;;;18.13;;
40757;SDS011;26462;47.384;19.218;2024-03-23T05:03:06;37.13;;;17.65;;
40757;SDS011;26462;47.384;19.218;2024-03-23T05:05:33;43.00;;;17.77;;
40757;SDS011;26462;47.384;19.218;2024-03-23T05:07:59;41.17;;;18.17;;
40757;SDS011;26462;47.384;19.218;2024-03-23T05:10:27;41.58;;;18.55;;
40757;SDS011;26462;47.384;19.218;2024-03-23T05:12:53;42.45;;;18.42;;
40757;SDS011;26462;47.384;19.218;2024-03-23T05:15:23;36.92;;;16.75;;
40757;SDS011;26462;47.384;19.218;2024-03-23T05:17:49;38.95;;;17.05;;
40757;SDS011;26462;47.384;19.218;2024-03-23T05:20:17;38.33;;;17.58;;
40757;SDS011;26462;47.384;19.218;2024-03-23T05:22:44;39.03;;;17.25;;
40757;SDS011;26462;47.384;19.218;2024-03-23T05:25:12;34.58;;;16.55;;
40757;SDS011;26462;47.384;19.218;2024-03-23T05:27:38;38.92;;;16.98;;
40757;SDS011;26462;47.384;19.218;2024-03-23T05:30:06;35.85;;;15.68;;
40757;SDS011;26462;47.384;19.218;2024-03-23T05:32:35;35.40;;;16.20;;
40757;SDS011;26462;47.384;19.218;2024-03-23T05:35:06;37.70;;;17.52;;
40757;SDS011;26462;47.384;19.218;2024-03-23T05:37:32;44.97;;;17.60;;
40757;SDS011;26462;47.384;19.218;2024-03-23T05:40:00;34.83;;;16.20;;
40757;SDS011;26462;47.384;19.218;2024-03-23T05:42:27;39.45;;;18.20;;
40757;SDS011;26462;47.384;19.218;2024-03-23T05:44:55;39.72;;;17.40;;
40757;SDS011;26462;47.384;19.218;2024-03-23T05:47:21;35.60;;;16.58;;
40757;SDS011;26462;47.384;19.218;2024-03-23T05:49:50;35.42;;;16.70;;
40757;SDS011;26462;47.384;19.218;2024-03-23T05:52:17;37.30;;;16.15;;
40757;SDS011;26462;47.384;19.218;2024-03-23T05:54:46;39.60;;;16.45;;
40757;SDS011;26462;47.384;19.218;2024-03-23T05:57:12;36.85;;;16.35;;
40757;SDS011;26462;47.384;19.218;2024-03-23T05:59:40;41.33;;;16.77;;
40757;SDS011;26462;47.384;19.218;2024-03-23T06:02:06;34.55;;;15.80;;
40757;SDS011;26462;47.384;19.218;2024-03-23T06:04:36;33.35;;;15.70;;
40757;SDS011;26462;47.384;19.218;2024-03-23T06:07:04;36.85;;;15.40;;
40757;SDS011;26462;47.384;19.218;2024-03-23T06:09:32;34.08;;;15.13;;
40757;SDS011;26462;47.384;19.218;2024-03-23T06:11:58;34.72;;;14.30;;
40757;SDS011;26462;47.384;19.218;2024-03-23T06:14:25;35.80;;;15.45;;
40757;SDS011;26462;47.384;19.218;2024-03-23T06:16:52;32.40;;;15.98;;
40757;SDS011;26462;47.384;19.218;2024-03-23T06:19:19;34.60;;;15.77;;
40757;SDS011;26462;47.384;19.218;2024-03-23T06:21:45;36.80;;;16.63;;
40757;SDS011;26462;47.384;19.218;2024-03-23T06:24:14;31.65;;;15.77;;
40757;SDS011;26462;47.384;19.218;2024-03-23T06:26:40;36.13;;;15.32;;
40757;SDS011;26462;47.384;19.218;2024-03-23T06:29:08;36.30;;;15.88;;
40757;SDS011;26462;47.384;19.218;2024-03-23T06:31:34;37.10;;;16.65;;
40757;SDS011;26462;47.384;19.218;2024-03-23T06:34:02;30.83;;;14.50;;
40757;SDS011;26462;47.384;19.218;2024-03-23T06:36:28;32.88;;;14.85;;
40757;SDS011;26462;47.384;19.218;2024-03-23T06:38:57;31.25;;;13.70;;
40757;SDS011;26462;47.384;19.218;2024-03-23T06:41:25;33.80;;;14.88;;
40757;SDS011;26462;47.384;19.218;2024-03-23T06:43:52;34.40;;;15.73;;
40757;SDS011;26462;47.384;19.218;2024-03-23T06:46:19;36.55;;;15.80;;
40757;SDS011;26462;47.384;19.218;2024-03-23T06:48:46;30.65;;;15.50;;
40757;SDS011;26462;47.384;19.218;2024-03-23T06:51:13;32.55;;;15.57;;
40757;SDS011;26462;47.384;19.218;2024-03-23T06:53:40;29.38;;;14.38;;
40757;SDS011;26462;47.384;19.218;2024-03-23T06:56:06;34.90;;;16.50;;
40757;SDS011;26462;47.384;19.218;2024-03-23T06:58:35;35.67;;;16.38;;
40757;SDS011;26462;47.384;19.218;2024-03-23T07:01:02;38.70;;;18.13;;
40757;SDS011;26462;47.384;19.218;2024-03-23T07:03:29;34.38;;;17.38;;
40757;SDS011;26462;47.384;19.218;2024-03-23T07:05:57;35.85;;;16.52;;
40757;SDS011;26462;47.384;19.218;2024-03-23T07:08:24;32.40;;;15.73;;
40757;SDS011;26462;47.384;19.218;2024-03-23T07:10:52;28.42;;;13.48;;
40757;SDS011;26462;47.384;19.218;2024-03-23T07:13:18;34.22;;;16.77;;
40757;SDS011;26462;47.384;19.218;2024-03-23T07:15:52;34.88;;;16.02;;
40757;SDS011;26462;47.384;19.218;2024-03-23T07:18:18;33.25;;;15.10;;
40757;SDS011;26462;47.384;19.218;2024-03-23T07:20:51;32.28;;;14.73;;
40757;SDS011;26462;47.384;19.218;2024-03-23T07:23:18;31.00;;;15.20;;
40757;SDS011;26462;47.384;19.218;2024-03-23T07:25:55;29.73;;;13.48;;
40757;SDS011;26462;47.384;19.218;2024-03-23T07:28:22;34.38;;;17.33;;
40757;SDS011;26462;47.384;19.218;2024-03-23T07:31:01;35.85;;;17.65;;
40757;SDS011;26462;47.384;19.218;2024-03-23T07:33:28;31.75;;;15.98;;
40757;SDS011;26462;47.384;19.218;2024-03-23T07:35:56;34.75;;;16.98;;
40757;SDS011;26462;47.384;19.218;2024-03-23T07:38:23;31.75;;;15.55;;
40757;SDS011;26462;47.384;19.218;2024-03-23T07:40:50;28.73;;;15.15;;
40757;SDS011;26462;47.384;19.218;2024-03-23T07:43:21;28.83;;;14.88;;
40757;SDS011;26462;47.384;19.218;2024-03-23T07:45:51;25.95;;;12.23;;
40757;SDS011;26462;47.384;19.218;2024-03-23T07:48:20;28.52;;;14.25;;
40757;SDS011;26462;47.384;19.218;2024-03-23T07:50:56;27.27;;;13.40;;
40757;SDS011;26462;47.384;19.218;2024-03-23T07:53:26;24.63;;;12.40;;
40757;SDS011;26462;47.384;19.218;2024-03-23T07:55:54;28.05;;;14.00;;
40757;SDS011;26462;47.384;19.218;2024-03-23T07:58:22;28.98;;;14.32;;
40757;SDS011;26462;47.384;19.218;2024-03-23T08:00:49;24.88;;;13.98;;
40757;SDS011;26462;47.384;19.218;2024-03-23T08:03:16;28.38;;;13.50;;
40757;SDS011;26462;47.384;19.218;2024-03-23T08:05:44;28.10;;;13.95;;
40757;SDS011;26462;47.384;19.218;2024-03-23T08:08:11;25.92;;;13.35;;
40757;SDS011;26462;47.384;19.218;2024-03-23T08:10:46;26.63;;;13.90;;
40757;SDS011;26462;47.384;19.218;2024-03-23T08:13:13;23.88;;;13.30;;
40757;SDS011;26462;47.384;19.218;2024-03-23T08:15:41;25.67;;;13.70;;
40757;SDS011;26462;47.384;19.218;2024-03-23T08:18:07;23.92;;;13.52;;
40757;SDS011;26462;47.384;19.218;2024-03-23T08:20:36;21.08;;;13.07;;
40757;SDS011;26462;47.384;19.218;2024-03-23T08:23:04;20.38;;;11.80;;
40757;SDS011;26462;47.384;19.218;2024-03-23T08:25:32;21.85;;;12.57;;
40757;SDS011;26462;47.384;19.218;2024-03-23T08:27:59;25.05;;;12.27;;
40757;SDS011;26462;47.384;19.218;2024-03-23T08:30:27;22.10;;;12.38;;
40757;SDS011;26462;47.384;19.218;2024-03-23T08:32:54;25.90;;;13.32;;
40757;SDS011;26462;47.384;19.218;2024-03-23T08:35:22;24.92;;;13.35;;
40757;SDS011;26462;47.384;19.218;2024-03-23T08:37:48;26.20;;;13.77;;
40757;SDS011;26462;47.384;19.218;2024-03-23T08:40:20;22.33;;;12.57;;
40757;SDS011;26462;47.384;19.218;2024-03-23T08:42:50;19.65;;;10.45;;
40757;SDS011;26462;47.384;19.218;2024-03-23T08:45:17;19.00;;;11.25;;
40757;SDS011;26462;47.384;19.218;2024-03-23T08:47:44;19.10;;;10.27;;
40757;SDS011;26462;47.384;19.218;2024-03-23T08:50:11;21.20;;;11.07;;
40757;SDS011;26462;47.384;19.218;2024-03-23T08:52:37;17.77;;;10.20;;
40757;SDS011;26462;47.384;19.218;2024-03-23T08:55:05;20.85;;;11.02;;
40757;SDS011;26462;47.384;19.218;2024-03-23T08:57:33;17.77;;;9.73;;
40757;SDS011;26462;47.384;19.218;2024-03-23T09:00:01;19.45;;;10.70;;
40757;SDS011;26462;47.384;19.218;2024-03-23T09:02:28;23.77;;;10.98;;
40757;SDS011;26462;47.384;19.218;2024-03-23T09:04:55;21.88;;;10.85;;
40757;SDS011;26462;47.384;19.218;2024-03-23T09:07:22;18.90;;;11.35;;
40757;SDS011;26462;47.384;19.218;2024-03-23T09:09:49;17.45;;;9.65;;
40757;SDS011;26462;47.384;19.218;2024-03-23T09:12:15;20.33;;;10.55;;
40757;SDS011;26462;47.384;19.218;2024-03-23T09:14:44;18.85;;;10.52;;
40757;SDS011;26462;47.384;19.218;2024-03-23T09:17:10;17.73;;;10.02;;
40757;SDS011;26462;47.384;19.218;2024-03-23T09:19:40;17.00;;;9.02;;
40757;SDS011;26462;47.384;19.218;2024-03-23T09:22:06;14.60;;;8.98;;
40757;SDS011;26462;47.384;19.218;2024-03-23T09:24:34;12.88;;;7.28;;
40757;SDS011;26462;47.384;19.218;2024-03-23T09:27:00;16.75;;;9.02;;
40757;SDS011;26462;47.384;19.218;2024-03-23T09:29:28;18.67;;;9.13;;
40757;SDS011;26462;47.384;19.218;2024-03-23T09:31:56;14.73;;;8.98;;
40757;SDS011;26462;47.384;19.218;2024-03-23T09:34:23;16.80;;;9.32;;
40757;SDS011;26462;47.384;19.218;2024-03-23T09:36:50;14.93;;;8.43;;
40757;SDS011;26462;47.384;19.218;2024-03-23T09:39:18;12.82;;;7.95;;
40757;SDS011;26462;47.384;19.218;2024-03-23T09:41:45;12.27;;;7.32;;
40757;SDS011;26462;47.384;19.218;2024-03-23T09:44:12;13.45;;;7.35;;
40757;SDS011;26462;47.384;19.218;2024-03-23T09:46:39;10.95;;;6.25;;
40757;SDS011;26462;47.384;19.218;2024-03-23T09:49:08;11.55;;;6.32;;
40757;SDS011;26462;47.384;19.218;2024-03-23T09:51:35;9.95;;;6.13;;
40757;SDS011;26462;47.384;19.218;2024-03-23T09:54:03;9.38;;;5.88;;
40757;SDS011;26462;47.384;19.218;2024-03-23T09:56:29;10.57;;;6.18;;
40757;SDS011;26462;47.384;19.218;2024-03-23T09:59:00;8.38;;;5.25;;
40757;SDS011;26462;47.384;19.218;2024-03-23T10:01:29;7.00;;;4.55;;
40757;SDS011;26462;47.384;19.218;2024-03-23T10:03:56;12.55;;;5.07;;
40757;SDS011;26462;47.384;19.218;2024-03-23T10:06:24;6.78;;;3.92;;
40757;SDS011;26462;47.384;19.218;2024-03-23T10:08:52;6.60;;;4.00;;
40757;SDS011;26462;47.384;19.218;2024-03-23T10:11:20;7.65;;;3.60;;
40757;SDS011;26462;47.384;19.218;2024-03-23T10:13:48;6.45;;;3.03;;
40757;SDS011;26462;47.384;19.218;2024-03-23T10:16:21;7.85;;;3.80;;
40757;SDS011;26462;47.384;19.218;2024-03-23T10:18:49;7.13;;;3.67;;
40757;SDS011;26462;47.384;19.218;2024-03-23T10:21:16;6.55;;;3.88;;
40757;SDS011;26462;47.384;19.218;2024-03-23T10:23:45;6.57;;;4.13;;
40757;SDS011;26462;47.384;19.218;2024-03-23T10:26:12;8.18;;;3.08;;
40757;SDS011;26462;47.384;19.218;2024-03-23T10:28:51;5.25;;;3.17;;
40757;SDS011;26462;47.384;19.218;2024-03-23T10:31:19;7.18;;;4.15;;
40757;SDS011;26462;47.384;19.218;2024-03-23T10:33:47;5.15;;;3.35;;
40757;SDS011;26462;47.384;19.218;2024-03-23T10:36:14;4.47;;;2.85;;
40757;SDS011;26462;47.384;19.218;2024-03-23T10:38:42;7.10;;;2.90;;
40757;SDS011;26462;47.384;19.218;2024-03-23T10:41:10;3.50;;;1.83;;
40757;SDS011;26462;47.384;19.218;2024-03-23T10:43:38;5.97;;;2.95;;
40757;SDS011;26462;47.384;19.218;2024-03-23T10:46:05;5.95;;;2.88;;
40757;SDS011;26462;47.384;19.218;2024-03-23T10:48:32;4.63;;;2.78;;
40757;SDS011;26462;47.384;19.218;2024-03-23T10:50:59;5.10;;;3.15;;
40757;SDS011;26462;47.384;19.218;2024-03-23T10:53:27;5.90;;;3.10;;
40757;SDS011;26462;47.384;19.218;2024-03-23T10:55:56;6.13;;;3.35;;
40757;SDS011;26462;47.384;19.218;2024-03-23T10:58:24;5.50;;;3.03;;
40757;SDS011;26462;47.384;19.218;2024-03-23T11:00:53;6.88;;;3.38;;
40757;SDS011;26462;47.384;19.218;2024-03-23T11:03:34;6.95;;;3.00;;
40757;SDS011;26462;47.384;19.218;2024-03-23T11:06:02;8.45;;;3.63;;
40757;SDS011;26462;47.384;19.218;2024-03-23T11:08:31;5.75;;;2.88;;
40757;SDS011;26462;47.384;19.218;2024-03-23T11:11:13;8.18;;;2.55;;
40757;SDS011;26462;47.384;19.218;2024-03-23T11:13:52;5.70;;;2.78;;
40757;SDS011;26462;47.384;19.218;2024-03-23T11:16:21;6.82;;;2.88;;
40757;SDS011;26462;47.384;19.218;2024-03-23T11:18:49;6.00;;;2.75;;
40757;SDS011;26462;47.384;19.218;2024-03-23T11:24:21;4.50;;;1.90;;
40757;SDS011;26462;47.384;19.218;2024-03-23T11:26:49;7.30;;;1.65;;
40757;SDS011;26462;47.384;19.218;2024-03-23T11:29:16;11.13;;;2.58;;
40757;SDS011;26462;47.384;19.218;2024-03-23T11:31:46;6.63;;;2.40;;
40757;SDS011;26462;47.384;19.218;2024-03-23T11:34:15;5.22;;;1.92;;
40757;SDS011;26462;47.384;19.218;2024-03-23T11:36:42;4.50;;;2.13;;
40757;SDS011;26462;47.384;19.218;2024-03-23T11:39:13;4.45;;;1.88;;
40757;SDS011;26462;47.384;19.218;2024-03-23T11:41:45;6.93;;;1.88;;
40757;SDS011;26462;47.384;19.218;2024-03-23T11:44:18;2.78;;;1.70;;
40757;SDS011;26462;47.384;19.218;2024-03-23T11:46:46;4.47;;;1.50;;
40757;SDS011;26462;47.384;19.218;2024-03-23T11:49:23;3.10;;;1.45;;
40757;SDS011;26462;47.384;19.218;2024-03-23T11:51:50;3.78;;;1.63;;
40757;SDS011;26462;47.384;19.218;2024-03-23T11:54:20;4.65;;;1.42;;
40757;SDS011;26462;47.384;19.218;2024-03-23T11:56:53;3.95;;;1.70;;
40757;SDS011;26462;47.384;19.218;2024-03-23T11:59:33;3.55;;;1.27;;
40757;SDS011;26462;47.384;19.218;2024-03-23T12:02:05;2.75;;;1.42;;
40757;SDS011;26462;47.384;19.218;2024-03-23T12:07:14;4.68;;;1.80;;
40757;SDS011;26462;47.384;19.218;2024-03-23T12:09:44;3.15;;;1.88;;
40757;SDS011;26462;47.384;19.218;2024-03-23T12:12:13;4.85;;;1.70;;
40757;SDS011;26462;47.384;19.218;2024-03-23T12:14:44;2.53;;;1.67;;
40757;SDS011;26462;47.384;19.218;2024-03-23T12:17:11;3.22;;;2.03;;
40757;SDS011;26462;47.384;19.218;2024-03-23T12:19:39;4.18;;;2.13;;
40757;SDS011;26462;47.384;19.218;2024-03-23T12:22:07;3.03;;;1.40;;
40757;SDS011;26462;47.384;19.218;2024-03-23T12:24:35;2.67;;;1.30;;
40757;SDS011;26462;47.384;19.218;2024-03-23T12:27:01;2.83;;;1.50;;
40757;SDS011;26462;47.384;19.218;2024-03-23T12:29:30;2.95;;;1.50;;
40757;SDS011;26462;47.384;19.218;2024-03-23T12:32:00;3.47;;;2.20;;
40757;SDS011;26462;47.384;19.218;2024-03-23T12:34:28;4.53;;;1.60;;
40757;SDS011;26462;47.384;19.218;2024-03-23T12:36:56;3.78;;;1.80;;
40757;SDS011;26462;47.384;19.218;2024-03-23T12:39:23;2.88;;;2.15;;
40757;SDS011;26462;47.384;19.218;2024-03-23T12:41:50;2.55;;;1.67;;
40757;SDS011;26462;47.384;19.218;2024-03-23T12:44:18;4.60;;;2.63;;
40757;SDS011;26462;47.384;19.218;2024-03-23T12:46:46;4.45;;;1.67;;
40757;SDS011;26462;47.384;19.218;2024-03-23T12:49:14;4.55;;;2.38;;
40757;SDS011;26462;47.384;19.218;2024-03-23T12:51:42;3.90;;;2.35;;
40757;SDS011;26462;47.384;19.218;2024-03-23T12:54:18;4.43;;;1.88;;
40757;SDS011;26462;47.384;19.218;2024-03-23T12:56:45;5.13;;;1.92;;
40757;SDS011;26462;47.384;19.218;2024-03-23T12:59:12;4.03;;;1.98;;
40757;SDS011;26462;47.384;19.218;2024-03-23T13:01:39;5.47;;;2.22;;
40757;SDS011;26462;47.384;19.218;2024-03-23T13:04:06;5.13;;;3.08;;
40757;SDS011;26462;47.384;19.218;2024-03-23T13:06:34;5.38;;;2.60;;
40757;SDS011;26462;47.384;19.218;2024-03-23T13:09:01;4.95;;;2.70;;
40757;SDS011;26462;47.384;19.218;2024-03-23T13:11:29;4.13;;;2.38;;
40757;SDS011;26462;47.384;19.218;2024-03-23T13:13:56;4.07;;;2.17;;
40757;SDS011;26462;47.384;19.218;2024-03-23T13:16:23;4.15;;;2.50;;
40757;SDS011;26462;47.384;19.218;2024-03-23T13:18:50;5.50;;;2.40;;
40757;SDS011;26462;47.384;19.218;2024-03-23T13:21:17;3.58;;;2.33;;
40757;SDS011;26462;47.384;19.218;2024-03-23T13:23:47;5.70;;;2.47;;
40757;SDS011;26462;47.384;19.218;2024-03-23T13:28:42;6.65;;;2.58;;
40757;SDS011;26462;47.384;19.218;2024-03-23T13:31:10;4.13;;;2.92;;
40757;SDS011;26462;47.384;19.218;2024-03-23T13:33:36;3.83;;;2.22;;
40757;SDS011;26462;47.384;19.218;2024-03-23T13:36:04;5.65;;;2.13;;
40757;SDS011;26462;47.384;19.218;2024-03-23T13:38:30;5.72;;;1.35;;
40757;SDS011;26462;47.384;19.218;2024-03-23T13:40:59;9.00;;;1.38;;
40757;SDS011;26462;47.384;19.218;2024-03-23T13:43:26;3.60;;;1.05;;
40757;SDS011;26462;47.384;19.218;2024-03-23T13:45:55;2.67;;;1.70;;
40757;SDS011;26462;47.384;19.218;2024-03-23T13:48:23;5.78;;;2.40;;
40757;SDS011;26462;47.384;19.218;2024-03-23T13:50:57;4.22;;;2.25;;
40757;SDS011;26462;47.384;19.218;2024-03-23T13:53:24;4.28;;;2.45;;
40757;SDS011;26462;47.384;19.218;2024-03-23T13:55:51;5.28;;;2.42;;
40757;SDS011;26462;47.384;19.218;2024-03-23T13:58:19;4.03;;;2.05;;
40757;SDS011;26462;47.384;19.218;2024-03-23T14:00:47;4.60;;;2.00;;
40757;SDS011;26462;47.384;19.218;2024-03-23T14:03:13;4.93;;;1.98;;
40757;SDS011;26462;47.384;19.218;2024-03-23T14:05:42;4.65;;;1.80;;
40757;SDS011;26462;47.384;19.218;2024-03-23T14:08:09;3.65;;;1.92;;
40757;SDS011;26462;47.384;19.218;2024-03-23T14:10:40;5.32;;;2.33;;
40757;SDS011;26462;47.384;19.218;2024-03-23T14:13:07;8.13;;;2.50;;
40757;SDS011;26462;47.384;19.218;2024-03-23T14:15:35;5.85;;;2.05;;
40757;SDS011;26462;47.384;19.218;2024-03-23T14:18:02;3.13;;;1.95;;
40757;SDS011;26462;47.384;19.218;2024-03-23T14:20:30;3.17;;;2.10;;
40757;SDS011;26462;47.384;19.218;2024-03-23T14:22:56;5.28;;;2.08;;
40757;SDS011;26462;47.384;19.218;2024-03-23T14:25:23;2.63;;;1.05;;
40757;SDS011;26462;47.384;19.218;2024-03-23T14:27:52;1.75;;;0.80;;
40757;SDS011;26462;47.384;19.218;2024-03-23T14:30:20;3.95;;;1.20;;
40757;SDS011;26462;47.384;19.218;2024-03-23T14:32:48;2.15;;;0.80;;
40757;SDS011;26462;47.384;19.218;2024-03-23T14:35:16;1.75;;;0.77;;
40757;SDS011;26462;47.384;19.218;2024-03-23T14:37:43;2.38;;;0.90;;
40757;SDS011;26462;47.384;19.218;2024-03-23T14:40:12;1.80;;;0.60;;
40757;SDS011;26462;47.384;19.218;2024-03-23T14:42:38;4.97;;;1.13;;
40757;SDS011;26462;47.384;19.218;2024-03-23T14:45:07;2.80;;;1.05;;
40757;SDS011;26462;47.384;19.218;2024-03-23T14:47:34;3.35;;;0.88;;
40757;SDS011;26462;47.384;19.218;2024-03-23T14:50:03;7.22;;;1.10;;
40757;SDS011;26462;47.384;19.218;2024-03-23T14:52:29;4.50;;;1.08;;
40757;SDS011;26462;47.384;19.218;2024-03-23T14:54:57;3.13;;;0.85;;
40757;SDS011;26462;47.384;19.218;2024-03-23T14:57:23;4.18;;;1.27;;
40757;SDS011;26462;47.384;19.218;2024-03-23T14:59:51;3.65;;;0.80;;
40757;SDS011;26462;47.384;19.218;2024-03-23T15:02:17;2.92;;;0.88;;
40757;SDS011;26462;47.384;19.218;2024-03-23T15:04:44;1.92;;;0.93;;
40757;SDS011;26462;47.384;19.218;2024-03-23T15:07:12;3.67;;;1.20;;
40757;SDS011;26462;47.384;19.218;2024-03-23T15:09:40;3.88;;;2.00;;
40757;SDS011;26462;47.384;19.218;2024-03-23T15:12:06;6.55;;;3.83;;
40757;SDS011;26462;47.384;19.218;2024-03-23T15:14:34;13.27;;;7.65;;
40757;SDS011;26462;47.384;19.218;2024-03-23T15:17:01;21.00;;;11.70;;
40757;SDS011;26462;47.384;19.218;2024-03-23T15:19:32;7.20;;;4.60;;
40757;SDS011;26462;47.384;19.218;2024-03-23T15:21:59;6.45;;;3.33;;
40757;SDS011;26462;47.384;19.218;2024-03-23T15:24:28;5.13;;;1.45;;